Time;durP1;ratioP1;P1;durP2;ratioP2;P2;SDS_P1;SDS_P2;PMS_P1;PMS_P2;Temp;Humidity;BMP_temperature;BMP_pressure;BME280_temperature;BME280_humidity;BME280_pressure;Samples;Min_cycle;Max_cycle;Signal;HPM_P1;HPM_P2
2022/05/10 00:00:35;;;;;;;8.13;6.43;;;14.90;99.90;;;;;;5006271;28;20141;-86
2022/05/10 00:03:06;;;;;;;7.00;5.72;;;14.80;99.90;;;;;;5015053;28;20376;-85
2022/05/10 00:05:39;;;;;;;8.10;6.97;;;14.90;99.90;;;;;;5015076;28;20633;-85
2022/05/10 00:08:12;;;;;;;7.80;6.45;;;14.60;99.90;;;;;;5014401;28;20112;-83
2022/05/10 00:10:40;;;;;;;9.77;7.03;;;14.10;99.90;;;;;;5013895;28;20137;-83
2022/05/10 00:13:07;;;;;;;9.55;7.15;;;13.90;99.90;;;;;;4997396;28;20100;-83
2022/05/10 00:15:35;;;;;;;8.18;7.18;;;13.80;99.90;;;;;;5014888;28;20488;-84
2022/05/10 00:18:03;;;;;;;9.65;7.43;;;14.20;99.90;;;;;;5014666;28;20042;-83
2022/05/10 00:20:30;;;;;;;9.88;7.25;;;14.30;99.90;;;;;;5014142;28;20042;-84
2022/05/10 00:22:58;;;;;;;8.65;6.75;;;14.20;99.90;;;;;;4977672;28;20043;-87
2022/05/10 00:25:30;;;;;;;7.90;6.60;;;14.40;99.90;;;;;;4995485;28;20065;-85
2022/05/10 00:27:57;;;;;;;7.47;6.45;;;14.20;99.90;;;;;;4995039;28;20058;-84
2022/05/10 00:30:26;;;;;;;8.35;6.90;;;14.20;99.90;;;;;;4994898;28;20523;-85
2022/05/10 00:32:53;;;;;;;8.73;7.00;;;14.10;99.90;;;;;;4995203;28;20534;-85
2022/05/10 00:35:25;;;;;;;7.25;6.10;;;14.20;99.90;;;;;;5004260;28;20073;-85
2022/05/10 00:37:55;;;;;;;7.68;6.28;;;14.40;99.90;;;;;;4994642;28;20397;-86
2022/05/10 00:40:35;;;;;;;8.35;7.05;;;14.30;99.90;;;;;;4995102;28;20058;-85
2022/05/10 00:43:16;;;;;;;9.27;6.70;;;14.20;99.90;;;;;;5013408;28;20467;-85
2022/05/10 00:45:51;;;;;;;7.95;6.75;;;14.00;99.90;;;;;;5013815;28;20212;-82
2022/05/10 00:48:29;;;;;;;9.00;7.07;;;13.80;99.90;;;;;;5012868;28;20060;-83
2022/05/10 00:51:03;;;;;;;9.20;7.47;;;13.70;99.90;;;;;;5014136;28;20455;-85
2022/05/10 00:53:50;;;;;;;8.32;7.30;;;13.50;99.90;;;;;;5001691;28;20050;-85
2022/05/10 00:56:28;;;;;;;8.65;6.85;;;13.60;99.90;;;;;;5010660;28;20133;-86
2022/05/10 00:59:00;;;;;;;9.23;6.80;;;13.70;99.90;;;;;;5013553;28;20150;-86
2022/05/10 01:01:33;;;;;;;8.55;7.30;;;13.90;99.90;;;;;;5014070;28;20049;-85
2022/05/10 01:04:14;;;;;;;8.70;7.00;;;13.60;99.90;;;;;;5014328;28;20084;-86
2022/05/10 01:06:51;;;;;;;8.93;7.43;;;13.20;99.90;;;;;;5013873;28;20085;-85
2022/05/10 01:09:28;;;;;;;7.93;6.93;;;13.20;99.90;;;;;;4994059;28;20626;-86
2022/05/10 01:12:03;;;;;;;8.98;6.88;;;12.90;99.90;;;;;;4994772;28;20592;-86
2022/05/10 01:14:37;;;;;;;9.07;7.15;;;13.00;99.90;;;;;;5000524;28;20074;-86
2022/05/10 01:17:05;;;;;;;8.10;6.63;;;12.90;99.90;;;;;;5014070;28;20092;-85
2022/05/10 01:19:32;;;;;;;7.82;6.43;;;13.10;99.90;;;;;;5013402;28;20061;-85
2022/05/10 01:22:18;;;;;;;8.48;6.95;;;13.20;99.90;;;;;;5014235;28;20096;-87
2022/05/10 01:25:10;;;;;;;11.18;6.93;;;13.10;99.90;;;;;;5012749;28;20581;-86
2022/05/10 01:27:49;;;;;;;9.75;7.28;;;13.00;99.90;;;;;;5013425;28;20588;-87
2022/05/10 01:30:21;;;;;;;8.15;6.50;;;13.10;99.90;;;;;;5013938;28;20100;-87
2022/05/10 01:35:46;;;;;;;8.32;6.55;;;13.10;99.90;;;;;;5013631;28;20057;-87
2022/05/10 01:38:29;;;;;;;10.10;6.63;;;13.20;99.90;;;;;;5013429;28;20137;-87
2022/05/10 01:41:07;;;;;;;8.05;6.68;;;13.30;99.90;;;;;;5012010;28;20060;-84
2022/05/10 01:43:40;;;;;;;8.52;6.85;;;13.30;99.90;;;;;;5013108;28;20128;-85
2022/05/10 01:46:15;;;;;;;8.10;7.18;;;13.30;99.90;;;;;;5003771;28;20550;-85
2022/05/10 01:48:47;;;;;;;9.32;7.80;;;13.20;99.90;;;;;;4994162;28;20565;-84
2022/05/10 01:51:21;;;;;;;9.75;7.50;;;13.10;99.90;;;;;;4997493;28;20085;-84
2022/05/10 01:53:49;;;;;;;9.85;7.28;;;12.90;99.90;;;;;;5016626;28;20089;-85
2022/05/10 01:56:21;;;;;;;9.23;6.78;;;12.70;99.90;;;;;;5017238;28;20046;-83
2022/05/10 01:58:49;;;;;;;9.77;7.13;;;12.80;99.90;;;;;;5016443;28;20380;-85
2022/05/10 02:01:25;;;;;;;9.32;7.20;;;12.90;99.90;;;;;;5013020;28;20646;-84
2022/05/10 02:03:58;;;;;;;8.85;7.32;;;12.90;99.90;;;;;;4997272;28;20407;-84
2022/05/10 02:06:32;;;;;;;9.27;7.43;;;12.80;99.90;;;;;;5003949;28;20046;-84
2022/05/10 02:09:08;;;;;;;9.18;7.43;;;12.90;99.90;;;;;;5003783;28;20081;-83
2022/05/10 02:11:41;;;;;;;9.93;7.40;;;12.90;99.90;;;;;;4998330;28;20500;-84
2022/05/10 02:14:17;;;;;;;10.27;7.50;;;12.70;99.90;;;;;;5002398;28;20054;-86
2022/05/10 02:16:52;;;;;;;9.70;7.32;;;12.80;99.90;;;;;;5013609;28;20061;-85
2022/05/10 02:19:23;;;;;;;;;;;12.70;99.90;;;;;;5005265;28;20262;-86
2022/05/10 02:21:55;;;;;;;8.70;7.30;;;12.70;99.90;;;;;;4999501;28;20344;-86
2022/05/10 02:24:27;;;;;;;9.25;7.07;;;12.80;99.90;;;;;;5011231;28;20415;-87
2022/05/10 02:26:59;;;;;;;9.02;8.00;;;12.80;99.90;;;;;;5021715;28;20050;-86
2022/05/10 02:29:32;;;;;;;8.95;7.07;;;12.40;99.90;;;;;;5011411;28;20073;-86
2022/05/10 02:34:56;;;;;;;9.40;7.88;;;11.50;99.90;;;;;;5016681;28;20546;-88
2022/05/10 02:37:23;;;;;;;10.20;8.13;;;11.50;99.90;;;;;;5012316;28;20124;-87
2022/05/10 02:39:51;;;;;;;10.77;7.97;;;11.50;99.90;;;;;;4997202;28;20051;-88
2022/05/10 02:42:21;;;;;;;10.45;8.52;;;11.50;99.90;;;;;;4997225;28;20043;-88
2022/05/10 02:44:54;;;;;;;9.18;7.63;;;11.90;99.90;;;;;;4996902;28;20093;-85
2022/05/10 02:47:32;;;;;;;10.73;7.80;;;12.10;99.90;;;;;;5001023;28;20046;-86
2022/05/10 02:49:59;;;;;;;10.18;7.80;;;12.20;99.90;;;;;;5016790;28;20468;-84
2022/05/10 02:52:27;;;;;;;10.60;8.32;;;12.30;99.90;;;;;;4998724;28;20128;-85
2022/05/10 02:54:55;;;;;;;11.05;8.38;;;12.40;99.90;;;;;;5016150;28;20096;-85
2022/05/10 02:57:24;;;;;;;9.95;7.90;;;12.30;99.90;;;;;;5016055;28;20050;-87
2022/05/10 02:59:55;;;;;;;9.73;7.82;;;12.40;99.90;;;;;;5016172;28;20135;-87
2022/05/10 03:02:29;;;;;;;8.70;7.43;;;12.40;99.90;;;;;;5016543;28;20073;-86
2022/05/10 03:05:00;;;;;;;9.55;8.05;;;12.30;99.90;;;;;;5016705;28;20148;-87
2022/05/10 03:07:28;;;;;;;10.13;8.30;;;12.20;99.90;;;;;;5012566;28;20046;-87
2022/05/10 03:09:56;;;;;;;9.75;7.70;;;12.20;99.90;;;;;;4996974;28;20058;-88
2022/05/10 03:12:24;;;;;;;9.63;7.72;;;12.30;99.90;;;;;;5005411;28;20944;-89
2022/05/10 03:14:51;;;;;;;9.90;7.55;;;12.30;99.90;;;;;;4996983;28;20070;-85
2022/05/10 03:17:18;;;;;;;8.73;7.53;;;12.30;99.90;;;;;;5006327;28;20097;-84
2022/05/10 03:19:45;;;;;;;9.45;8.07;;;12.30;99.90;;;;;;5015407;28;20050;-84
2022/05/10 03:22:13;;;;;;;9.65;7.95;;;12.10;99.90;;;;;;5014887;28;20077;-83
2022/05/10 03:24:41;;;;;;;10.60;8.15;;;12.10;99.90;;;;;;4996408;28;20081;-87
2022/05/10 03:27:10;;;;;;;11.07;8.20;;;12.20;99.90;;;;;;4996495;28;20102;-84
2022/05/10 03:29:39;;;;;;;10.15;8.50;;;11.90;99.90;;;;;;4996003;28;20141;-83
2022/05/10 03:32:07;;;;;;;9.15;7.78;;;11.70;99.90;;;;;;4995569;28;20480;-85
2022/05/10 03:37:20;;;;;;;;;;;12.10;99.90;;;;;;5014948;28;20061;-84
2022/05/10 03:39:47;;;;;;;10.85;8.35;;;12.10;99.90;;;;;;5015419;28;19961;-84
2022/05/10 03:42:16;;;;;;;10.70;8.50;;;12.00;99.90;;;;;;5014511;28;20053;-84
2022/05/10 03:44:43;;;;;;;10.15;8.38;;;11.80;99.90;;;;;;5015011;28;20058;-84
2022/05/10 03:47:11;;;;;;;10.27;8.55;;;11.70;99.90;;;;;;5015272;28;20081;-84
2022/05/10 03:49:38;;;;;;;9.45;7.70;;;11.70;99.90;;;;;;5015056;28;20054;-86
2022/05/10 03:52:06;;;;;;;9.18;7.90;;;11.70;99.90;;;;;;5016062;28;20108;-87
2022/05/10 03:54:34;;;;;;;10.23;7.65;;;11.90;99.90;;;;;;5004716;28;20557;-85
2022/05/10 03:57:02;;;;;;;9.45;7.93;;;11.90;99.90;;;;;;5015727;28;20077;-84
2022/05/10 03:59:29;;;;;;;9.40;7.80;;;12.00;99.90;;;;;;5014578;28;20065;-84
2022/05/10 04:01:58;;;;;;;9.07;7.32;;;11.80;99.90;;;;;;5013173;28;20101;-84
2022/05/10 04:04:26;;;;;;;9.30;7.70;;;11.40;99.90;;;;;;5013450;28;20150;-84
2022/05/10 04:06:53;;;;;;;11.00;8.27;;;11.10;99.90;;;;;;5015465;28;20092;-85
2022/05/10 04:09:20;;;;;;;9.70;7.70;;;10.70;99.90;;;;;;5014827;28;20696;-85
2022/05/10 04:11:48;;;;;;;9.50;7.50;;;10.80;99.90;;;;;;4997580;28;20046;-85
2022/05/10 04:14:16;;;;;;;10.65;7.80;;;10.90;99.90;;;;;;4995382;28;20050;-86
2022/05/10 04:19:14;;;;;;;9.57;7.72;;;11.20;99.90;;;;;;5035325;28;20050;-86
2022/05/10 04:21:42;;;;;;;9.05;7.25;;;11.50;99.90;;;;;;5016864;28;20466;-85
2022/05/10 04:24:10;;;;;;;9.70;7.55;;;11.60;99.90;;;;;;5033261;28;20133;-88
2022/05/10 04:26:39;;;;;;;9.88;7.80;;;11.70;99.90;;;;;;5033554;28;20045;-86
2022/05/10 04:29:08;;;;;;;9.63;8.25;;;11.60;99.90;;;;;;5016907;28;20049;-86
2022/05/10 04:31:35;;;;;;;9.70;7.75;;;11.70;99.90;;;;;;5034333;28;20141;-85
2022/05/10 04:34:02;;;;;;;9.20;7.60;;;11.70;99.90;;;;;;5030521;28;20129;-84
2022/05/10 04:36:29;;;;;;;9.40;7.30;;;11.80;99.90;;;;;;5015510;28;20052;-84
2022/05/10 04:38:57;;;;;;;9.25;7.53;;;11.90;99.90;;;;;;5033529;28;20446;-82
2022/05/10 04:41:27;;;;;;;9.25;7.75;;;11.80;99.90;;;;;;5033204;28;20487;-83
2022/05/10 04:43:57;;;;;;;9.40;7.63;;;11.70;99.90;;;;;;5031847;28;20068;-83
2022/05/10 04:46:27;;;;;;;9.25;7.30;;;12.00;99.90;;;;;;5016915;28;20103;-82
2022/05/10 04:48:54;;;;;;;8.77;7.20;;;12.00;99.90;;;;;;5015080;28;20054;-82
2022/05/10 04:51:21;;;;;;;9.50;7.55;;;12.10;99.90;;;;;;5033668;28;20140;-82
2022/05/10 04:53:48;;;;;;;9.10;7.35;;;12.10;99.90;;;;;;5032877;28;20085;-84
2022/05/10 04:56:16;;;;;;;9.93;7.82;;;12.10;99.90;;;;;;5033425;28;20096;-81
2022/05/10 04:58:44;;;;;;;9.55;7.85;;;12.20;99.90;;;;;;5029290;28;20077;-89
2022/05/10 05:01:16;;;;;;;10.07;8.15;;;12.20;99.90;;;;;;5025688;28;20471;-88
2022/05/10 05:03:47;;;;;;;10.50;7.80;;;12.20;99.90;;;;;;5028667;28;20088;-89
2022/05/10 05:06:15;;;;;;;9.65;7.75;;;12.10;99.90;;;;;;5035613;28;20041;-91
2022/05/10 05:08:42;;;;;;;9.48;8.40;;;12.20;99.90;;;;;;5034792;28;20156;-89
2022/05/10 05:11:09;;;;;;;10.93;8.48;;;12.40;99.90;;;;;;5033909;28;20467;-88
2022/05/10 05:13:38;;;;;;;10.20;8.35;;;12.50;99.90;;;;;;5032385;28;20377;-89
2022/05/10 05:16:06;;;;;;;11.63;8.13;;;12.50;99.90;;;;;;5034714;28;20494;-89
2022/05/10 05:18:34;;;;;;;11.15;8.40;;;12.50;99.90;;;;;;5014521;28;20057;-90
2022/05/10 05:21:03;;;;;;;11.52;8.85;;;12.50;99.90;;;;;;5009536;28;20096;-91
2022/05/10 05:23:31;;;;;;;9.45;8.27;;;12.50;99.90;;;;;;5027215;28;20088;-90
2022/05/10 05:25:58;;;;;;;10.95;8.48;;;12.60;99.90;;;;;;5029560;28;20073;-90
2022/05/10 05:28:25;;;;;;;11.02;8.68;;;12.60;99.90;;;;;;5037130;28;20049;-92
2022/05/10 05:30:52;;;;;;;9.30;8.23;;;12.80;99.90;;;;;;5016877;28;20077;-91
2022/05/10 05:33:20;;;;;;;9.52;8.40;;;12.80;99.90;;;;;;5037930;28;20095;-90
2022/05/10 05:35:47;;;;;;;11.20;9.13;;;12.90;99.90;;;;;;5035063;28;20145;-87
2022/05/10 05:38:16;;;;;;;13.38;8.68;;;13.00;99.90;;;;;;5031088;28;20563;-87
2022/05/10 05:40:43;;;;;;;10.63;8.90;;;12.90;99.90;;;;;;5033454;28;20061;-88
2022/05/10 05:43:18;;;;;;;11.18;9.13;;;12.90;99.90;;;;;;5033216;28;20491;-86
2022/05/10 05:45:46;;;;;;;12.50;9.00;;;13.00;99.90;;;;;;5032548;28;20505;-87
2022/05/10 05:48:13;;;;;;;10.38;8.57;;;13.00;99.90;;;;;;5033292;28;20077;-86
2022/05/10 05:50:41;;;;;;;12.63;9.55;;;13.10;99.90;;;;;;5015496;28;20041;-85
2022/05/10 05:53:08;;;;;;;11.27;8.60;;;13.30;99.90;;;;;;5033329;28;20541;-86
2022/05/10 05:55:37;;;;;;;11.05;9.80;;;13.30;99.90;;;;;;5031849;28;20136;-86
2022/05/10 05:58:04;;;;;;;11.48;9.80;;;13.20;99.90;;;;;;5033189;28;20484;-84
2022/05/10 06:00:32;;;;;;;11.38;9.75;;;13.40;99.90;;;;;;5033072;28;20104;-86
2022/05/10 06:02:59;;;;;;;12.93;9.90;;;13.40;99.90;;;;;;5015616;28;20515;-90
2022/05/10 06:05:28;;;;;;;11.60;10.07;;;13.40;99.90;;;;;;5015014;28;20042;-85
2022/05/10 06:07:55;;;;;;;11.50;9.43;;;13.50;99.90;;;;;;5032533;28;20045;-84
2022/05/10 06:10:22;;;;;;;13.15;10.05;;;13.50;99.90;;;;;;5013877;28;20069;-85
2022/05/10 06:12:51;;;;;;;12.80;10.30;;;13.60;99.90;;;;;;5013814;28;20081;-87
2022/05/10 06:15:20;;;;;;;12.02;9.32;;;13.60;99.90;;;;;;5014424;28;20113;-90
2022/05/10 06:17:49;;;;;;;12.95;9.88;;;13.70;99.90;;;;;;5003532;28;20068;-91
2022/05/10 06:20:20;;;;;;;14.32;11.27;;;13.80;99.90;;;;;;5007620;28;20125;-88
2022/05/10 06:22:48;;;;;;;11.55;9.98;;;13.80;99.90;;;;;;5030107;28;20052;-88
2022/05/10 06:25:19;;;;;;;12.05;10.18;;;13.90;99.90;;;;;;5026902;28;20128;-90
2022/05/10 06:27:46;;;;;;;13.85;10.95;;;14.00;99.90;;;;;;5033704;28;20053;-90
2022/05/10 06:30:16;;;;;;;15.52;11.70;;;14.00;99.90;;;;;;5031084;28;20460;-92
2022/05/10 06:32:44;;;;;;;15.05;11.88;;;14.00;99.90;;;;;;5024538;28;20089;-90
2022/05/10 06:35:12;;;;;;;14.65;11.30;;;14.00;99.90;;;;;;5009569;28;20440;-89
2022/05/10 06:40:23;;;;;;;13.43;11.05;;;14.20;99.90;;;;;;5039357;28;20510;-87
2022/05/10 06:42:51;;;;;;;14.57;10.75;;;14.20;99.90;;;;;;5022651;28;20492;-91
2022/05/10 06:45:21;;;;;;;15.60;10.70;;;14.20;99.90;;;;;;5017362;28;20077;-88
2022/05/10 06:47:49;;;;;;;13.15;10.65;;;14.30;99.90;;;;;;5017509;28;20087;-89
2022/05/10 06:50:20;;;;;;;12.70;9.77;;;14.40;99.90;;;;;;5017066;28;20460;-89
2022/05/10 06:52:49;;;;;;;11.98;9.20;;;14.50;99.90;;;;;;5017050;28;20073;-88
2022/05/10 06:55:17;;;;;;;12.25;9.88;;;14.60;99.90;;;;;;5016875;28;20092;-89
2022/05/10 06:57:44;;;;;;;10.95;9.75;;;14.70;99.90;;;;;;5027612;28;20499;-88
2022/05/10 07:00:14;;;;;;;10.93;9.63;;;14.70;99.90;;;;;;5032254;28;20069;-89
2022/05/10 07:02:44;;;;;;;11.07;9.50;;;14.80;99.90;;;;;;5022773;28;20073;-89
2022/05/10 07:05:13;;;;;;;11.57;9.45;;;14.90;99.90;;;;;;5000263;28;20045;-89
2022/05/10 07:07:41;;;;;;;12.85;10.32;;;15.00;99.90;;;;;;5017109;28;20137;-89
2022/05/10 07:10:11;;;;;;;14.75;10.32;;;15.00;99.90;;;;;;5016822;28;20137;-88
2022/05/10 07:12:39;;;;;;;12.00;9.05;;;15.00;99.90;;;;;;4999550;28;20054;-90
2022/05/10 07:15:09;;;;;;;11.23;9.45;;;15.10;99.90;;;;;;5016455;28;20132;-89
2022/05/10 07:17:38;;;;;;;10.93;8.80;;;15.20;99.90;;;;;;5016308;28;20114;-91
2022/05/10 07:20:11;;;;;;;10.10;8.32;;;15.30;99.90;;;;;;5016004;28;20149;-89
2022/05/10 07:22:39;;;;;;;12.45;8.75;;;15.50;99.90;;;;;;5015916;28;20081;-90
2022/05/10 07:25:08;;;;;;;12.25;8.95;;;15.50;99.90;;;;;;5016306;28;20127;-90
2022/05/10 07:27:36;;;;;;;10.00;8.00;;;15.60;99.90;;;;;;5016105;28;20480;-90
2022/05/10 07:30:03;;;;;;;9.27;7.85;;;15.60;99.90;;;;;;4998512;28;20460;-90
2022/05/10 07:32:34;;;;;;;13.43;7.93;;;15.70;99.90;;;;;;5015937;28;20133;-90
2022/05/10 07:35:03;;;;;;;11.57;8.27;;;15.90;99.90;;;;;;5015951;28;20500;-89
2022/05/10 07:37:33;;;;;;;10.77;7.95;;;16.00;99.90;;;;;;5016401;28;20045;-90
2022/05/10 07:40:01;;;;;;;11.88;8.70;;;16.10;99.90;;;;;;5015919;28;20042;-87
2022/05/10 07:42:29;;;;;;;8.88;7.97;;;16.20;99.90;;;;;;5015918;28;20136;-89
2022/05/10 07:44:57;;;;;;;9.82;8.10;;;16.30;99.90;;;;;;4998518;28;20046;-88
2022/05/10 07:47:24;;;;;;;9.38;7.63;;;16.40;99.90;;;;;;4997404;28;20111;-90
2022/05/10 07:49:51;;;;;;;9.95;8.13;;;16.50;99.90;;;;;;5015932;28;20075;-91
2022/05/10 07:52:19;;;;;;;10.55;8.10;;;16.50;99.90;;;;;;5015668;28;20153;-90
2022/05/10 07:54:47;;;;;;;10.40;8.25;;;16.60;99.90;;;;;;4998619;28;20081;-88
2022/05/10 07:57:15;;;;;;;12.32;8.68;;;16.60;99.90;;;;;;4982419;28;20045;-90
2022/05/10 07:59:42;;;;;;;12.23;8.68;;;16.70;99.90;;;;;;5015206;28;20180;-88
2022/05/10 08:02:09;;;;;;;10.05;7.80;;;16.70;99.90;;;;;;4998500;28;20140;-90
2022/05/10 08:04:36;;;;;;;9.73;7.70;;;16.80;99.90;;;;;;5015701;28;20069;-89
2022/05/10 08:07:04;;;;;;;8.43;7.32;;;16.90;99.90;;;;;;5028356;28;20045;-89
2022/05/10 08:09:33;;;;;;;9.80;7.30;;;17.00;99.90;;;;;;5031641;28;20073;-87
2022/05/10 08:12:01;;;;;;;10.27;7.70;;;17.10;99.90;;;;;;5033658;28;20085;-80
2022/05/10 08:14:29;;;;;;;11.73;7.88;;;17.20;99.90;;;;;;5033059;28;20132;-81
2022/05/10 08:16:56;;;;;;;10.07;7.32;;;17.40;99.90;;;;;;5031976;28;20483;-84
2022/05/10 08:19:23;;;;;;;8.95;7.00;;;17.50;99.90;;;;;;5032871;28;20083;-82
2022/05/10 08:21:52;;;;;;;7.78;6.40;;;17.60;99.90;;;;;;5015703;28;20104;-84
2022/05/10 08:24:19;;;;;;;8.35;6.53;;;17.60;99.90;;;;;;5034861;28;20057;-85
2022/05/10 08:26:47;;;;;;;9.13;6.18;;;17.70;99.90;;;;;;5030952;28;20124;-83
2022/05/10 08:29:15;;;;;;;7.35;6.10;;;17.80;99.90;;;;;;5013579;28;20084;-82
2022/05/10 08:31:43;;;;;;;7.80;6.07;;;17.80;99.90;;;;;;5030232;28;20120;-80
2022/05/10 08:34:10;;;;;;;6.82;5.63;;;17.90;99.90;;;;;;5034989;28;20049;-84
2022/05/10 08:36:37;;;;;;;9.68;7.10;;;18.00;99.90;;;;;;5021541;28;20077;-82
2022/05/10 08:39:04;;;;;;;9.52;5.93;;;18.00;99.90;;;;;;5033116;28;20140;-85
2022/05/10 08:41:42;;;;;;;7.32;5.22;;;18.00;99.90;;;;;;5013747;28;20050;-85
2022/05/10 08:44:17;;;;;;;6.20;4.80;;;18.10;99.90;;;;;;5024962;28;20065;-91
2022/05/10 08:46:58;;;;;;;6.35;5.25;;;18.20;99.90;;;;;;5041168;28;20077;-84
2022/05/10 08:49:34;;;;;;;6.22;5.18;;;18.40;99.90;;;;;;5032834;28;20088;-89
2022/05/10 08:52:02;;;;;;;6.90;5.50;;;18.40;99.90;;;;;;5033106;28;20050;-84
2022/05/10 08:54:30;;;;;;;7.78;5.85;;;18.60;99.90;;;;;;5035492;28;20065;-85
2022/05/10 08:57:02;;;;;;;6.47;5.30;;;18.70;99.90;;;;;;5035611;28;20426;-86
2022/05/10 08:59:41;;;;;;;6.10;5.18;;;18.80;99.80;;;;;;5031539;28;20069;-80
2022/05/10 09:02:15;;;;;;;6.90;4.97;;;18.90;98.70;;;;;;5033194;28;20153;-85
2022/05/10 09:04:55;;;;;;;7.20;4.80;;;18.90;98.90;;;;;;5027625;28;20070;-83
2022/05/10 09:07:34;;;;;;;6.50;4.70;;;19.00;98.80;;;;;;5024573;28;20563;-86
2022/05/10 09:10:06;;;;;;;6.10;5.15;;;19.10;99.50;;;;;;5032708;28;20072;-82
2022/05/10 09:12:44;;;;;;;6.90;5.38;;;19.20;99.20;;;;;;5032018;28;20083;-78
2022/05/10 09:15:14;;;;;;;8.48;5.57;;;19.20;98.60;;;;;;5031982;28;20049;-81
2022/05/10 09:17:41;;;;;;;7.38;5.68;;;19.20;99.10;;;;;;5032189;28;20054;-80
2022/05/10 09:20:11;;;;;;;8.40;5.75;;;19.30;98.30;;;;;;5031907;28;20084;-79
2022/05/10 09:22:54;;;;;;;6.30;5.30;;;19.40;98.40;;;;;;5031922;28;20132;-79
2022/05/10 09:25:32;;;;;;;6.60;4.93;;;19.50;98.40;;;;;;5030204;28;20083;-79
2022/05/10 09:28:01;;;;;;;7.28;5.57;;;19.70;98.70;;;;;;5020590;28;20221;-80
2022/05/10 09:30:33;;;;;;;8.73;6.45;;;19.80;96.90;;;;;;5031783;28;20132;-77
2022/05/10 09:36:10;;;;;;;8.60;5.72;;;19.80;97.10;;;;;;5034023;28;20056;-85
2022/05/10 09:38:45;;;;;;;7.53;5.97;;;20.00;96.00;;;;;;5033202;28;20045;-85
2022/05/10 09:41:32;;;;;;;7.68;5.90;;;20.10;96.00;;;;;;5043591;28;20053;-89
2022/05/10 09:44:18;;;;;;;6.15;5.20;;;20.10;96.10;;;;;;5040131;28;20128;-84
2022/05/10 09:46:46;;;;;;;8.13;5.70;;;20.30;96.00;;;;;;5016741;28;20404;-84
2022/05/10 09:49:36;;;;;;;7.38;5.15;;;20.20;94.50;;;;;;5032664;28;20054;-83
2022/05/10 09:52:05;;;;;;;6.05;4.80;;;20.30;93.70;;;;;;5031932;28;20045;-81
2022/05/10 09:54:38;;;;;;;6.70;5.15;;;20.40;92.70;;;;;;5031328;28;20534;-79
2022/05/10 09:57:10;;;;;;;5.53;4.57;;;20.50;92.00;;;;;;5029072;28;20500;-79
2022/05/10 09:59:44;;;;;;;6.68;4.65;;;20.60;92.00;;;;;;5031178;28;20058;-79
2022/05/10 10:02:26;;;;;;;;;;;20.80;90.30;;;;;;5032941;28;20485;-80
2022/05/10 10:04:53;;;;;;;7.85;4.53;;;20.70;90.10;;;;;;5032321;28;20015;-79
2022/05/10 10:07:24;;;;;;;6.57;4.00;;;20.50;90.20;;;;;;5032598;28;20128;-79
2022/05/10 10:09:53;;;;;;;5.35;3.90;;;20.60;90.10;;;;;;5033379;28;20133;-80
2022/05/10 10:12:33;;;;;;;5.60;4.47;;;20.60;89.80;;;;;;5036398;28;20049;-80
2022/05/10 10:15:02;;;;;;;6.80;4.35;;;20.90;88.90;;;;;;5036945;28;20089;-79
2022/05/10 10:17:34;;;;;;;5.85;4.00;;;21.00;88.90;;;;;;5036100;28;20053;-78
2022/05/10 10:20:08;;;;;;;5.78;4.15;;;20.90;87.50;;;;;;5036242;28;20132;-77
2022/05/10 10:22:42;;;;;;;5.38;3.80;;;20.90;86.40;;;;;;5036037;28;20095;-81
2022/05/10 10:25:21;;;;;;;5.88;4.32;;;21.00;86.80;;;;;;5036278;28;20055;-77
2022/05/10 10:27:57;;;;;;;5.75;3.92;;;20.90;84.80;;;;;;5036045;28;20137;-80
2022/05/10 10:30:28;;;;;;;5.95;4.00;;;21.00;83.80;;;;;;5036254;28;20084;-78
2022/05/10 10:33:03;;;;;;;4.50;3.38;;;21.20;84.30;;;;;;5036093;28;20132;-80
2022/05/10 10:35:35;;;;;;;;;;;21.30;78.50;;;;;;5029350;28;20077;-80
2022/05/10 10:38:15;;;;;;;4.18;3.38;;;21.40;77.50;;;;;;5015991;28;20011;-79
2022/05/10 10:40:48;;;;;;;5.18;3.58;;;21.30;77.60;;;;;;5016293;28;20085;-79
2022/05/10 10:43:23;;;;;;;4.43;3.30;;;21.40;77.80;;;;;;5016192;28;20134;-79
2022/05/10 10:45:55;;;;;;;4.82;2.92;;;21.40;78.30;;;;;;5015911;28;20523;-78
2022/05/10 10:48:33;;;;;;;4.88;3.35;;;21.60;78.80;;;;;;5015996;28;20128;-78
2022/05/10 10:51:01;;;;;;;5.07;3.50;;;21.70;76.70;;;;;;5015965;28;20058;-78
2022/05/10 10:53:34;;;;;;;4.63;3.30;;;21.80;77.50;;;;;;5016114;28;20128;-78
2022/05/10 10:56:27;;;;;;;4.72;3.55;;;22.00;75.80;;;;;;5015719;28;20057;-79
2022/05/10 10:59:13;;;;;;;4.65;3.08;;;22.00;72.80;;;;;;5015668;28;20408;-79
2022/05/10 11:01:58;;;;;;;3.90;2.53;;;22.10;69.30;;;;;;5015733;28;20085;-78
2022/05/10 11:04:51;;;;;;;4.30;2.60;;;22.10;62.00;;;;;;5015626;28;20100;-77
2022/05/10 11:07:30;;;;;;;4.57;2.80;;;22.10;65.20;;;;;;5015753;28;20084;-80
2022/05/10 11:10:08;;;;;;;4.43;2.50;;;22.20;62.10;;;;;;5015859;28;20193;-79
2022/05/10 11:12:49;;;;;;;4.03;2.60;;;22.20;60.70;;;;;;5015657;28;20077;-77
2022/05/10 11:15:31;;;;;;;4.28;2.30;;;22.50;60.40;;;;;;5015430;28;20404;-79
2022/05/10 11:18:33;;;;;;;4.38;2.30;;;22.30;57.30;;;;;;5015001;28;20066;-77
2022/05/10 11:21:19;;;;;;;4.13;2.38;;;22.30;58.00;;;;;;5011148;28;20081;-78
2022/05/10 11:23:58;;;;;;;4.47;2.70;;;22.40;59.70;;;;;;5015354;28;20097;-78
2022/05/10 11:26:47;;;;;;;4.75;2.42;;;22.50;60.10;;;;;;5014964;28;20100;-78
2022/05/10 11:29:34;;;;;;;3.88;2.53;;;22.50;59.40;;;;;;5015032;28;20086;-79
2022/05/10 11:32:24;;;;;;;3.88;2.50;;;22.50;59.20;;;;;;5015188;28;20476;-78
2022/05/10 11:35:09;;;;;;;3.92;2.50;;;22.60;57.60;;;;;;5014994;28;20096;-79
2022/05/10 11:37:45;;;;;;;4.28;2.55;;;22.60;57.20;;;;;;5015164;28;20053;-79
2022/05/10 11:40:39;;;;;;;4.20;2.30;;;22.70;58.30;;;;;;4997464;28;20052;-78
2022/05/10 11:43:36;;;;;;;3.55;2.08;;;22.80;59.10;;;;;;5014925;28;20076;-78
2022/05/10 11:46:40;;;;;;;3.33;2.10;;;22.90;56.40;;;;;;5014802;28;20393;-78
2022/05/10 11:49:48;;;;;;;3.65;2.20;;;22.90;57.00;;;;;;5011024;28;20081;-79
2022/05/10 11:52:50;;;;;;;4.57;2.75;;;23.20;55.50;;;;;;5014663;28;20085;-81
2022/05/10 11:55:31;;;;;;;4.28;2.20;;;23.20;57.60;;;;;;5014724;28;20057;-77
2022/05/10 11:58:03;;;;;;;3.97;2.28;;;23.40;52.70;;;;;;5014529;28;20054;-79
2022/05/10 12:00:51;;;;;;;3.50;1.83;;;23.30;52.20;;;;;;5014476;28;20046;-78
2022/05/10 12:03:52;;;;;;;3.10;1.90;;;23.60;53.50;;;;;;5014827;28;20042;-78
2022/05/10 12:06:42;;;;;;;3.58;2.30;;;23.90;53.10;;;;;;5014441;28;20053;-79
2022/05/10 12:09:16;;;;;;;4.55;2.10;;;23.90;51.60;;;;;;5014445;28;20141;-79
2022/05/10 12:11:44;;;;;;;3.90;2.45;;;24.00;51.40;;;;;;5014434;28;20053;-78
2022/05/10 12:21:21;;;;;;;3.25;2.25;;;24.40;52.80;;;;;;5013554;28;20049;-80
2022/05/10 12:24:05;;;;;;;3.65;2.10;;;24.20;51.90;;;;;;5015362;28;20119;-78
2022/05/10 12:26:38;;;;;;;4.40;2.35;;;24.30;50.00;;;;;;5014338;28;20569;-78
2022/05/10 12:29:07;;;;;;;3.55;2.25;;;24.60;48.50;;;;;;5014398;28;20046;-77
2022/05/10 12:31:57;;;;;;;3.75;2.40;;;24.50;49.60;;;;;;5018063;28;20038;-79
2022/05/10 12:34:49;;;;;;;10.02;5.68;;;24.80;49.90;;;;;;5030802;28;20045;-81
2022/05/10 12:37:50;;;;;;;3.95;2.13;;;24.80;48.60;;;;;;5019649;28;20487;-80
2022/05/10 12:40:51;;;;;;;4.72;2.30;;;25.00;50.30;;;;;;5033677;28;20057;-80
2022/05/10 12:44:14;;;;;;;3.83;2.42;;;25.00;49.70;;;;;;5032253;28;20041;-79
2022/05/10 12:46:58;;;;;;;3.95;2.55;;;25.10;48.80;;;;;;5032241;28;20081;-80
2022/05/10 12:49:44;;;;;;;;;;;25.10;49.70;;;;;;5030732;28;20132;-78
2022/05/10 12:52:43;;;;;;;4.35;2.58;;;25.30;51.50;;;;;;5032683;28;19925;-79
2022/05/10 12:55:18;;;;;;;4.05;2.70;;;24.80;49.90;;;;;;5031657;28;20041;-79
2022/05/10 12:57:55;;;;;;;4.20;2.72;;;24.90;49.70;;;;;;5033506;28;20072;-79
2022/05/10 13:00:27;;;;;;;3.85;2.28;;;25.10;49.20;;;;;;5031378;28;20050;-79
2022/05/10 13:03:00;;;;;;;3.38;2.58;;;25.50;50.00;;;;;;5033645;28;20085;-79
2022/05/10 13:05:47;;;;;;;4.63;2.42;;;25.40;49.00;;;;;;5028562;28;20592;-77
2022/05/10 13:08:46;;;;;;;4.10;2.45;;;25.50;48.40;;;;;;5030372;28;20050;-78
2022/05/10 13:11:14;;;;;;;4.50;2.42;;;25.60;49.80;;;;;;5030132;28;20557;-76
2022/05/10 13:13:44;;;;;;;4.15;2.45;;;25.80;50.00;;;;;;5017127;28;20132;-77
2022/05/10 13:16:18;;;;;;;4.13;2.30;;;25.70;51.40;;;;;;5030937;28;20052;-78
2022/05/10 13:18:47;;;;;;;3.50;2.30;;;25.80;51.10;;;;;;5023480;28;20060;-75
2022/05/10 13:21:23;;;;;;;3.63;2.33;;;25.50;52.40;;;;;;5031929;28;20045;-75
2022/05/10 13:23:52;;;;;;;4.22;2.60;;;25.60;51.90;;;;;;5032438;28;20049;-78
2022/05/10 13:26:19;;;;;;;3.92;2.55;;;25.60;48.40;;;;;;5032893;28;20080;-79
2022/05/10 13:28:52;;;;;;;3.72;2.10;;;25.60;49.70;;;;;;5032290;28;20080;-74
2022/05/10 13:31:26;;;;;;;3.20;2.10;;;25.50;52.40;;;;;;5033057;28;20137;-79
2022/05/10 13:34:09;;;;;;;4.57;2.58;;;25.50;50.00;;;;;;5032841;28;20107;-77
2022/05/10 13:36:38;;;;;;;4.30;2.30;;;25.70;50.00;;;;;;5029885;28;20137;-78
2022/05/10 13:39:06;;;;;;;3.90;2.50;;;25.80;51.90;;;;;;5032497;28;20778;-77